createdAt,value
2023-03-25T00:01:19.416Z,15.40
2023-03-25T00:03:50.883Z,16.90
2023-03-25T00:06:21.255Z,14.50
2023-03-25T00:08:50.035Z,15.40
2023-03-25T00:11:20.287Z,15.40
2023-03-25T00:13:49.167Z,15.00
2023-03-25T00:16:19.254Z,15.60
2023-03-25T00:18:48.052Z,16.90
2023-03-25T00:21:16.692Z,14.50
2023-03-25T00:23:44.956Z,19.10
2023-03-25T00:26:13.383Z,15.80
2023-03-25T00:28:41.418Z,15.10
2023-03-25T00:31:14.942Z,16.20
2023-03-25T00:33:43.167Z,14.20
2023-03-25T00:36:14.840Z,15.90
2023-03-25T00:38:50.093Z,17.60
2023-03-25T00:41:28.389Z,12.70
2023-03-25T00:43:58.669Z,14.70
2023-03-25T00:46:30.119Z,13.10
2023-03-25T00:49:00.638Z,14.30
2023-03-25T00:51:31.318Z,12.90
2023-03-25T00:54:03.574Z,13.90
2023-03-25T00:56:32.137Z,13.00
2023-03-25T00:59:00.433Z,12.60
2023-03-25T01:01:30.791Z,15.10
2023-03-25T01:04:00.691Z,14.00
2023-03-25T01:06:35.200Z,14.20
2023-03-25T01:09:06.694Z,15.80
2023-03-25T01:11:37.786Z,14.00
2023-03-25T01:14:09.414Z,12.80
2023-03-25T01:16:38.016Z,13.40
2023-03-25T01:19:08.983Z,15.60
2023-03-25T01:21:37.271Z,11.10
2023-03-25T01:24:07.896Z,11.70
2023-03-25T01:26:38.146Z,12.30
2023-03-25T01:29:07.105Z,12.80
2023-03-25T01:31:35.289Z,14.20
2023-03-25T01:34:03.971Z,16.30
2023-03-25T01:36:32.008Z,12.80
2023-03-25T01:39:01.555Z,13.20
2023-03-25T01:41:39.130Z,13.40
2023-03-25T01:44:15.195Z,11.40
2023-03-25T01:46:45.265Z,12.90
2023-03-25T01:49:21.645Z,11.00
2023-03-25T01:51:53.558Z,13.20
2023-03-25T01:54:22.255Z,11.60
2023-03-25T01:56:52.620Z,10.00
2023-03-25T01:59:24.992Z,13.40
2023-03-25T02:01:56.645Z,13.00
2023-03-25T02:04:45.639Z,12.30
2023-03-25T02:07:16.844Z,10.70
2023-03-25T02:09:45.302Z,13.00
2023-03-25T02:12:13.751Z,16.80
2023-03-25T02:14:41.926Z,13.10
2023-03-25T02:17:49.909Z,12.10
2023-03-25T02:20:42.193Z,9.60
2023-03-25T02:23:31.550Z,13.80
2023-03-25T02:26:36.653Z,13.30
2023-03-25T02:29:34.167Z,14.30
2023-03-25T02:32:27.038Z,9.40
2023-03-25T02:35:13.184Z,10.20
2023-03-25T02:38:07.575Z,10.50
2023-03-25T02:40:56.222Z,11.20
2023-03-25T02:43:32.579Z,10.90
2023-03-25T02:46:08.492Z,9.90
2023-03-25T02:49:03.180Z,9.20
2023-03-25T02:51:42.752Z,9.60
2023-03-25T02:54:13.773Z,9.30
2023-03-25T02:56:47.508Z,8.90
2023-03-25T02:59:18.434Z,7.90
2023-03-25T03:01:51.032Z,10.10
2023-03-25T03:04:20.823Z,8.00
2023-03-25T03:06:49.494Z,7.30
2023-03-25T03:09:23.116Z,8.00
2023-03-25T03:12:29.487Z,9.80
2023-03-25T03:17:56.303Z,11.50
2023-03-25T03:20:55.833Z,8.80
2023-03-25T03:23:46.290Z,11.70
2023-03-25T03:26:27.317Z,10.70
2023-03-25T03:29:08.525Z,8.30
2023-03-25T03:32:05.888Z,11.90
2023-03-25T03:34:43.309Z,8.40
2023-03-25T03:37:18.858Z,9.30
2023-03-25T03:39:49.347Z,10.30
2023-03-25T03:42:41.928Z,9.30
2023-03-25T03:45:19.195Z,9.70
2023-03-25T03:47:51.597Z,11.50
2023-03-25T03:50:24.477Z,11.30
2023-03-25T03:53:03.137Z,10.10
2023-03-25T03:55:41.972Z,13.50
2023-03-25T03:58:16.384Z,9.60
2023-03-25T04:00:50.673Z,14.20
2023-03-25T04:03:28.540Z,9.80
2023-03-25T04:06:10.377Z,9.70
2023-03-25T04:08:51.967Z,10.50
2023-03-25T04:11:24.753Z,13.10
2023-03-25T04:13:57.682Z,10.90
2023-03-25T04:16:26.092Z,9.20
2023-03-25T04:18:55.453Z,11.30
2023-03-25T04:21:24.259Z,9.70
2023-03-25T04:23:52.316Z,8.50
2023-03-25T04:26:21.845Z,8.00
2023-03-25T04:28:49.901Z,10.00
2023-03-25T04:31:18.092Z,12.30
2023-03-25T04:33:48.697Z,10.40
2023-03-25T04:36:16.931Z,11.00
2023-03-25T04:38:48.095Z,11.60
2023-03-25T04:41:17.569Z,11.20
2023-03-25T04:43:45.819Z,10.10
2023-03-25T04:46:16.417Z,8.00
2023-03-25T04:48:45.653Z,10.20
2023-03-25T04:51:15.601Z,9.20
2023-03-25T04:53:43.991Z,12.90
2023-03-25T04:56:17.215Z,12.90
2023-03-25T04:58:46.037Z,13.10
2023-03-25T05:01:32.483Z,18.50
2023-03-25T05:04:05.948Z,19.40
2023-03-25T05:06:39.948Z,24.10
2023-03-25T05:09:11.921Z,22.00
2023-03-25T05:11:41.908Z,24.30
2023-03-25T05:14:11.695Z,28.80
2023-03-25T05:16:40.772Z,30.90
2023-03-25T05:19:09.794Z,24.30
2023-03-25T05:21:39.343Z,36.20
2023-03-25T05:24:10.981Z,27.20
2023-03-25T05:26:41.069Z,27.80
2023-03-25T05:29:14.904Z,29.80
2023-03-25T05:31:48.959Z,29.40
2023-03-25T05:34:17.563Z,28.60
2023-03-25T05:36:46.130Z,24.60
2023-03-25T05:39:14.576Z,29.30
2023-03-25T05:41:45.697Z,22.70
2023-03-25T05:44:18.787Z,14.60
2023-03-25T05:46:47.054Z,15.30
2023-03-25T05:49:15.257Z,12.40
2023-03-25T05:51:45.329Z,11.50
2023-03-25T05:54:13.474Z,12.40
2023-03-25T05:56:43.761Z,11.80
2023-03-25T05:59:11.970Z,14.90
2023-03-25T06:01:43.270Z,11.90
2023-03-25T06:04:14.752Z,9.00
2023-03-25T06:06:42.787Z,10.10
2023-03-25T06:09:11.939Z,12.20
2023-03-25T06:11:40.114Z,12.20
2023-03-25T06:14:08.304Z,12.60
2023-03-25T06:16:37.126Z,11.60
2023-03-25T06:19:05.237Z,10.50
2023-03-25T06:21:34.594Z,13.40
2023-03-25T06:24:03.120Z,19.30
2023-03-25T06:26:32.893Z,20.00
2023-03-25T06:29:03.826Z,19.10
2023-03-25T06:31:34.407Z,11.40
2023-03-25T06:34:03.028Z,12.30
2023-03-25T06:36:31.717Z,12.10
2023-03-25T06:39:00.075Z,13.10
2023-03-25T06:41:29.326Z,13.90
2023-03-25T06:44:09.913Z,14.30
2023-03-25T06:46:47.015Z,14.30
2023-03-25T06:49:18.252Z,17.10
2023-03-25T06:51:47.000Z,16.40
2023-03-25T06:54:15.578Z,14.70
2023-03-25T06:56:45.213Z,17.90
2023-03-25T06:59:13.385Z,16.50
2023-03-25T07:01:43.384Z,15.00
2023-03-25T07:04:11.433Z,19.70
2023-03-25T07:06:39.531Z,22.10
2023-03-25T07:09:08.163Z,15.40
2023-03-25T07:11:36.324Z,19.30
2023-03-25T07:14:07.499Z,18.30
2023-03-25T07:16:35.988Z,22.70
2023-03-25T07:19:04.245Z,21.80
2023-03-25T07:21:32.474Z,20.60
2023-03-25T07:24:04.025Z,12.70
2023-03-25T07:26:32.166Z,12.70
2023-03-25T07:29:01.451Z,12.20
2023-03-25T07:31:31.460Z,20.00
2023-03-25T07:33:59.998Z,18.00
2023-03-25T07:36:28.675Z,17.20
2023-03-25T07:38:59.201Z,14.30
2023-03-25T07:41:27.288Z,15.00
2023-03-25T07:44:12.573Z,16.90
2023-03-25T07:46:40.806Z,19.80
2023-03-25T07:49:08.924Z,21.30
2023-03-25T07:51:36.981Z,23.00
2023-03-25T07:54:06.400Z,26.30
2023-03-25T07:56:34.903Z,29.00
2023-03-25T07:59:05.093Z,29.40
2023-03-25T08:01:34.240Z,32.30
2023-03-25T08:04:02.532Z,36.60
2023-03-25T08:06:31.399Z,32.20
2023-03-25T08:09:00.701Z,33.10
2023-03-25T08:11:28.984Z,31.20
2023-03-25T08:13:57.859Z,37.70
2023-03-25T08:16:27.927Z,36.70
2023-03-25T08:18:56.409Z,31.30
2023-03-25T08:21:28.041Z,36.40
2023-03-25T08:24:03.270Z,30.90
2023-03-25T08:29:02.844Z,54.80
2023-03-25T08:31:33.353Z,45.30
2023-03-25T08:34:02.762Z,46.50
2023-03-25T08:36:33.564Z,43.30
2023-03-25T08:39:08.301Z,50.80
2023-03-25T08:41:38.685Z,45.90
2023-03-25T08:44:10.497Z,42.90
2023-03-25T08:46:38.628Z,48.30
2023-03-25T08:49:08.748Z,43.20
2023-03-25T08:51:36.880Z,45.60
2023-03-25T08:54:05.395Z,53.90
2023-03-25T08:56:35.227Z,50.30
2023-03-25T08:59:05.721Z,41.20
2023-03-25T09:01:34.631Z,44.30
2023-03-25T09:04:06.672Z,48.70
2023-03-25T09:06:47.819Z,49.10
2023-03-25T09:09:24.754Z,39.40
2023-03-25T09:11:55.427Z,43.70
2023-03-25T09:14:23.693Z,41.70
2023-03-25T09:16:52.356Z,43.60
2023-03-25T09:19:21.922Z,46.50
2023-03-25T09:21:50.441Z,57.00
2023-03-25T09:24:18.600Z,65.20
2023-03-25T09:26:46.763Z,54.20
2023-03-25T09:29:15.136Z,57.10
2023-03-25T09:31:43.403Z,59.30
2023-03-25T09:34:14.646Z,60.40
2023-03-25T09:36:48.041Z,60.40
2023-03-25T09:39:19.570Z,55.00
2023-03-25T09:42:11.870Z,51.30
2023-03-25T09:45:11.956Z,61.50
2023-03-25T09:48:06.194Z,64.10
2023-03-25T09:50:37.028Z,64.30
2023-03-25T09:53:31.107Z,57.40
2023-03-25T09:56:00.661Z,57.50
2023-03-25T09:58:42.192Z,51.60
2023-03-25T10:01:33.242Z,60.70
2023-03-25T10:04:23.310Z,75.10
2023-03-25T10:07:06.289Z,69.90
2023-03-25T10:09:57.572Z,62.10
2023-03-25T10:12:37.485Z,55.60
2023-03-25T10:15:24.990Z,51.60
2023-03-25T10:18:21.185Z,51.30
2023-03-25T10:21:21.686Z,48.20
2023-03-25T10:24:05.639Z,37.80
2023-03-25T10:26:40.971Z,48.70
2023-03-25T10:29:33.501Z,43.00
2023-03-25T10:32:07.789Z,41.30
2023-03-25T10:34:46.842Z,41.20
2023-03-25T10:37:21.996Z,35.80
2023-03-25T10:39:51.767Z,33.30
2023-03-25T10:42:24.942Z,24.70
2023-03-25T10:44:54.601Z,28.10
2023-03-25T10:47:30.845Z,15.90
2023-03-25T10:49:59.864Z,16.80
2023-03-25T10:52:29.072Z,15.70
2023-03-25T10:55:07.667Z,16.60
2023-03-25T10:57:37.271Z,18.30
2023-03-25T11:00:20.576Z,19.20
2023-03-25T11:02:49.199Z,15.30
2023-03-25T11:05:21.517Z,17.20
2023-03-25T11:08:23.684Z,15.90
2023-03-25T11:10:58.671Z,14.10
2023-03-25T11:13:31.387Z,18.40
2023-03-25T11:16:03.142Z,26.80
2023-03-25T11:18:40.797Z,21.70
2023-03-25T11:21:13.874Z,22.80
2023-03-25T11:23:51.601Z,12.90
2023-03-25T11:26:19.764Z,11.20
2023-03-25T11:28:56.076Z,11.70
2023-03-25T11:31:28.626Z,12.40
2023-03-25T11:34:17.598Z,13.80
2023-03-25T11:37:02.155Z,12.90
2023-03-25T11:39:37.077Z,10.10
2023-03-25T11:42:37.890Z,6.90
2023-03-25T11:45:07.102Z,8.00
2023-03-25T11:47:38.211Z,4.70
2023-03-25T11:50:07.519Z,3.40
2023-03-25T11:52:43.632Z,5.90
2023-03-25T11:55:27.822Z,5.10
2023-03-25T11:57:58.904Z,3.10
2023-03-25T12:00:34.201Z,3.40
2023-03-25T12:03:14.786Z,8.40
2023-03-25T12:05:43.305Z,2.40
2023-03-25T12:08:18.775Z,6.90
2023-03-25T12:11:05.084Z,2.10
2023-03-25T12:13:45.589Z,1.70
2023-03-25T12:16:23.926Z,2.40
2023-03-25T12:19:01.299Z,2.30
2023-03-25T12:22:00.977Z,3.60
2023-03-25T12:24:58.319Z,0.60
2023-03-25T12:27:29.511Z,2.60
2023-03-25T12:30:10.870Z,4.30
2023-03-25T12:32:55.810Z,4.70
2023-03-25T12:35:47.921Z,3.30
2023-03-25T12:38:37.283Z,3.30
2023-03-25T12:41:21.920Z,4.20
2023-03-25T12:43:58.958Z,2.40
2023-03-25T12:46:37.341Z,1.50
2023-03-25T12:49:22.335Z,2.30
2023-03-25T12:52:26.314Z,2.20
2023-03-25T12:55:11.546Z,2.10
2023-03-25T12:57:56.050Z,1.40
2023-03-25T13:00:36.916Z,2.40
2023-03-25T13:03:13.256Z,2.70
2023-03-25T13:06:00.238Z,6.90
2023-03-25T13:08:37.694Z,2.90
2023-03-25T13:11:18.756Z,1.70
2023-03-25T13:13:50.142Z,1.40
2023-03-25T13:16:25.543Z,1.70
2023-03-25T13:18:56.975Z,1.70
2023-03-25T13:21:32.235Z,2.60
2023-03-25T13:24:27.958Z,1.20
2023-03-25T13:26:58.016Z,1.60
2023-03-25T13:29:39.381Z,1.00
2023-03-25T13:32:15.323Z,1.30
2023-03-25T13:34:50.361Z,2.30
2023-03-25T13:37:21.997Z,1.60
2023-03-25T13:40:13.205Z,1.90
2023-03-25T13:42:47.473Z,4.10
2023-03-25T13:45:20.732Z,2.10
2023-03-25T13:48:01.396Z,2.50
2023-03-25T13:50:31.932Z,4.70
2023-03-25T13:53:05.283Z,0.80
2023-03-25T13:55:46.117Z,0.90
2023-03-25T13:58:36.415Z,1.00
2023-03-25T14:01:48.624Z,1.80
2023-03-25T14:04:35.120Z,2.40
2023-03-25T14:07:21.965Z,2.60
2023-03-25T14:10:11.774Z,2.60
2023-03-25T14:12:51.829Z,1.80
2023-03-25T14:15:31.934Z,2.00
2023-03-25T14:18:02.660Z,1.80
2023-03-25T14:20:38.108Z,1.80
2023-03-25T14:23:14.081Z,1.00
2023-03-25T14:28:32.906Z,1.60
2023-03-25T14:31:32.078Z,2.50
2023-03-25T14:34:00.354Z,2.60
2023-03-25T14:36:39.576Z,2.30
2023-03-25T14:39:13.134Z,0.80
2023-03-25T14:42:13.493Z,1.60
2023-03-25T14:44:49.945Z,4.00
2023-03-25T14:47:27.948Z,3.10
2023-03-25T14:50:05.348Z,1.90
2023-03-25T14:52:40.664Z,3.10
2023-03-25T14:55:20.282Z,2.20
2023-03-25T14:57:51.395Z,2.40
2023-03-25T15:00:27.488Z,2.50
2023-03-25T15:03:05.293Z,1.40
2023-03-25T15:05:36.732Z,2.90
2023-03-25T15:08:09.614Z,1.00
2023-03-25T15:10:45.824Z,2.00
2023-03-25T15:13:27.497Z,6.10
2023-03-25T15:16:01.659Z,3.10
2023-03-25T15:18:35.782Z,3.30
2023-03-25T15:21:09.442Z,1.50
2023-03-25T15:23:42.925Z,4.20
2023-03-25T15:26:18.696Z,2.60
2023-03-25T15:29:02.124Z,4.40
2023-03-25T15:31:42.122Z,4.40
2023-03-25T15:34:18.440Z,1.70
2023-03-25T15:37:05.631Z,1.70
2023-03-25T15:39:44.935Z,1.50
2023-03-25T15:42:38.928Z,3.30
2023-03-25T15:45:13.901Z,3.00
2023-03-25T15:47:42.000Z,3.40
2023-03-25T15:50:29.684Z,4.20
2023-03-25T15:53:25.865Z,1.30
2023-03-25T15:56:13.698Z,1.20
2023-03-25T15:59:16.255Z,1.60
2023-03-25T16:01:52.029Z,3.00
2023-03-25T16:04:33.314Z,2.80
2023-03-25T16:07:05.541Z,2.10
2023-03-25T16:09:41.794Z,3.10
2023-03-25T16:12:11.072Z,3.90
2023-03-25T16:14:44.105Z,4.10
2023-03-25T16:17:15.214Z,6.90
2023-03-25T16:19:49.687Z,4.30
2023-03-25T16:22:34.622Z,2.20
2023-03-25T16:25:06.841Z,4.10
2023-03-25T16:27:41.846Z,4.10
2023-03-25T16:32:53.797Z,3.00
2023-03-25T16:35:26.015Z,2.50
2023-03-25T16:37:58.500Z,4.10
2023-03-25T16:40:31.052Z,6.40
2023-03-25T16:43:13.900Z,6.40
2023-03-25T16:45:44.368Z,3.70
2023-03-25T16:48:35.607Z,5.20
2023-03-25T16:51:14.173Z,2.60
2023-03-25T16:53:44.095Z,4.10
2023-03-25T16:56:15.216Z,6.30
2023-03-25T16:59:00.252Z,3.20
2023-03-25T17:01:33.777Z,4.00
2023-03-25T17:04:11.712Z,3.40
2023-03-25T17:06:43.307Z,4.40
2023-03-25T17:09:17.979Z,3.90
2023-03-25T17:11:48.139Z,3.80
2023-03-25T17:14:23.984Z,4.30
2023-03-25T17:16:54.228Z,5.80
2023-03-25T17:19:26.168Z,4.20
2023-03-25T17:22:16.523Z,6.70
2023-03-25T17:24:58.037Z,6.50
2023-03-25T17:27:44.544Z,8.90
2023-03-25T17:30:22.172Z,11.00
2023-03-25T17:32:51.172Z,9.20
2023-03-25T17:35:31.725Z,5.70
2023-03-25T17:38:00.773Z,12.00
2023-03-25T17:40:31.270Z,11.90
2023-03-25T17:42:59.738Z,12.00
2023-03-25T17:45:28.004Z,8.20
2023-03-25T17:47:56.848Z,21.10
2023-03-25T17:50:27.665Z,9.70
2023-03-25T17:52:55.827Z,11.10
2023-03-25T17:55:23.965Z,9.20
2023-03-25T17:57:52.025Z,7.80
2023-03-25T18:00:20.790Z,10.30
2023-03-25T18:02:49.049Z,11.30
2023-03-25T18:05:17.601Z,10.00
2023-03-25T18:07:45.765Z,15.60
2023-03-25T18:10:20.401Z,9.40
2023-03-25T18:12:48.640Z,8.30
2023-03-25T18:15:16.938Z,10.50
2023-03-25T18:17:45.202Z,9.20
2023-03-25T18:20:21.845Z,13.20
2023-03-25T18:22:53.371Z,16.50
2023-03-25T18:25:24.376Z,14.80
2023-03-25T18:27:54.790Z,24.80
2023-03-25T18:30:29.784Z,17.90
2023-03-25T18:32:58.039Z,27.00
2023-03-25T18:35:26.404Z,26.90
2023-03-25T18:37:54.887Z,16.50
2023-03-25T18:40:30.501Z,19.50
2023-03-25T18:42:58.669Z,12.50
2023-03-25T18:45:27.474Z,11.80
2023-03-25T18:47:57.654Z,16.40
2023-03-25T18:50:30.558Z,10.10
2023-03-25T18:52:59.719Z,11.10
2023-03-25T18:55:29.910Z,15.10
2023-03-25T18:57:58.888Z,15.20
2023-03-25T19:00:31.168Z,11.00
2023-03-25T19:02:59.428Z,13.80
2023-03-25T19:05:27.976Z,8.90
2023-03-25T19:07:56.374Z,8.60
2023-03-25T19:10:28.144Z,6.90
2023-03-25T19:12:56.448Z,8.50
2023-03-25T19:15:27.900Z,9.10
2023-03-25T19:18:02.114Z,10.80
2023-03-25T19:20:33.704Z,13.10
2023-03-25T19:23:05.034Z,8.70
2023-03-25T19:25:33.508Z,6.90
2023-03-25T19:28:01.762Z,7.30
2023-03-25T19:30:31.720Z,9.50
2023-03-25T19:33:02.235Z,10.20
2023-03-25T19:35:32.494Z,11.60
2023-03-25T19:38:03.542Z,10.30
2023-03-25T19:40:36.688Z,12.30
2023-03-25T19:43:06.715Z,10.10
2023-03-25T19:45:35.679Z,10.40
2023-03-25T19:48:04.048Z,9.50
2023-03-25T19:50:33.672Z,8.30
2023-03-25T19:53:06.240Z,13.60
2023-03-25T19:55:34.509Z,16.70
2023-03-25T19:58:02.856Z,12.50
2023-03-25T20:00:31.941Z,15.40
2023-03-25T20:03:01.892Z,14.30
2023-03-25T20:05:32.172Z,12.20
2023-03-25T20:08:00.450Z,9.70
2023-03-25T20:10:30.460Z,11.20
2023-03-25T20:12:59.075Z,13.80
2023-03-25T20:15:27.277Z,9.60
2023-03-25T20:17:56.564Z,11.60
2023-03-25T20:20:25.853Z,11.30
2023-03-25T20:22:54.147Z,11.60
2023-03-25T20:25:22.480Z,9.20
2023-03-25T20:27:51.622Z,10.50
2023-03-25T20:30:20.363Z,10.50
2023-03-25T20:32:49.803Z,10.10
2023-03-25T20:35:18.889Z,10.40
2023-03-25T20:37:49.137Z,10.30
2023-03-25T20:40:18.431Z,11.90
2023-03-25T20:42:47.514Z,12.20
2023-03-25T20:45:17.933Z,10.60
2023-03-25T20:47:46.414Z,12.90
2023-03-25T20:50:16.705Z,11.50
2023-03-25T20:52:45.044Z,9.00
2023-03-25T20:55:13.884Z,10.30
2023-03-25T20:57:42.043Z,9.60
2023-03-25T21:00:14.842Z,10.90
2023-03-25T21:02:45.106Z,11.20
2023-03-25T21:05:14.221Z,14.70
2023-03-25T21:07:42.260Z,13.70
2023-03-25T21:10:11.093Z,14.60
2023-03-25T21:12:44.028Z,12.10
2023-03-25T21:15:16.782Z,18.20
2023-03-25T21:17:44.987Z,14.40
2023-03-25T21:20:13.264Z,15.00
2023-03-25T21:22:43.891Z,10.00
2023-03-25T21:25:14.840Z,9.90
2023-03-25T21:27:45.523Z,13.60
2023-03-25T21:30:15.760Z,9.20
2023-03-25T21:32:43.910Z,11.40
2023-03-25T21:35:12.217Z,10.90
2023-03-25T21:37:40.602Z,8.80
2023-03-25T21:40:11.338Z,9.50
2023-03-25T21:42:41.513Z,13.60
2023-03-25T21:45:13.757Z,11.10
2023-03-25T21:47:43.715Z,7.80
2023-03-25T21:50:13.507Z,8.70
2023-03-25T21:52:46.509Z,9.00
2023-03-25T21:55:16.644Z,7.70
2023-03-25T21:57:45.285Z,7.70
2023-03-25T22:00:17.635Z,11.50
2023-03-25T22:02:47.478Z,7.10
2023-03-25T22:05:16.964Z,7.60
2023-03-25T22:07:45.079Z,5.90
2023-03-25T22:10:13.197Z,4.40
2023-03-25T22:12:41.428Z,6.00
2023-03-25T22:15:10.479Z,5.30
2023-03-25T22:17:38.643Z,6.60
2023-03-25T22:20:07.766Z,3.80
2023-03-25T22:22:36.965Z,4.50
2023-03-25T22:25:06.986Z,3.00
2023-03-25T22:27:36.497Z,3.70
2023-03-25T22:30:08.396Z,2.50
2023-03-25T22:32:36.736Z,3.20
2023-03-25T22:35:05.379Z,4.10
2023-03-25T22:37:37.208Z,5.20
2023-03-25T22:40:09.300Z,3.70
2023-03-25T22:42:37.647Z,3.10
2023-03-25T22:45:06.567Z,3.10
2023-03-25T22:47:35.005Z,4.10
2023-03-25T22:50:03.595Z,3.10
2023-03-25T22:52:31.654Z,5.40
2023-03-25T22:54:59.735Z,3.80
2023-03-25T22:57:28.142Z,3.10
2023-03-25T22:59:56.144Z,2.80
2023-03-25T23:02:24.928Z,2.90
2023-03-25T23:04:53.055Z,4.30
2023-03-25T23:07:21.273Z,2.80
2023-03-25T23:09:49.314Z,2.70
2023-03-25T23:12:23.004Z,2.70
2023-03-25T23:14:55.649Z,4.40
2023-03-25T23:17:26.751Z,3.60
2023-03-25T23:19:54.826Z,3.00
2023-03-25T23:22:22.873Z,4.20
2023-03-25T23:24:51.077Z,3.20
2023-03-25T23:27:19.510Z,2.20
2023-03-25T23:29:48.094Z,3.10
2023-03-25T23:32:16.635Z,4.30
2023-03-25T23:34:45.389Z,3.60
2023-03-25T23:37:15.302Z,3.20
2023-03-25T23:39:46.229Z,3.00
2023-03-25T23:42:14.258Z,2.90
2023-03-25T23:44:43.736Z,2.10
2023-03-25T23:47:12.178Z,2.30
2023-03-25T23:49:40.528Z,2.50
2023-03-25T23:52:11.527Z,2.80
2023-03-25T23:54:40.359Z,3.50
2023-03-25T23:57:08.436Z,4.60
2023-03-25T23:59:36.531Z,3.50
